KEAT/EAT METAR and TAF weather

Enter ICAO airport designator
Station Type Date Time Source
KEAT METAR 2018/10/19 14:55 UTC NOAA

KEAT 191455Z AUTO 00000KT 10SM CLR 05/00 A3035 RMK AO2 SLP283 T00500000 53014


Station Type Date Time Source
KEAT Decoded METAR 2018/10/19 14:55 UTC NOAA

WENATCHEE PANGBORN MEMO, WA, United States (KEAT) 47-24N 120-12W 377M
Oct 19, 2018 - 10:55 AM EDT / 2018.10.19 1455 UTC
Wind: Calm:0
Visibility: 10 mile(s):0
Sky conditions: clear
Temperature: 41.0 F (5.0 C)
Dew Point: 32.0 F (0.0 C)
Relative Humidity: 70%
Pressure (altimeter): 30.35 in. Hg (1027 hPa)
Pressure tendency: 0.04 inches (1.4 hPa) higher than three hours ago
ob: KEAT 191455Z AUTO 00000KT 10SM CLR 05/00 A3035 RMK AO2 SLP283 T00500000 53014
cycle: 15

Station Type Date Time Source
KEAT TAF 2018/10/19 12:33 UTC NOAA

TAF KEAT 191129Z 1912/2012 VRB03KT P6SM FEW200


Example: see airport list